sensor_id;sensor_type;location;lat;lon;timestamp;P1;durP1;ratioP1;P2;durP2;ratioP2
24751;SDS011;27246;52.376;4.628;2022-12-07T00:00:25;4.97;;;2.20;;
24751;SDS011;27246;52.376;4.628;2022-12-07T00:05:27;3.92;;;1.88;;
24751;SDS011;27246;52.376;4.628;2022-12-07T00:10:32;4.97;;;2.30;;
24751;SDS011;27246;52.376;4.628;2022-12-07T00:15:35;4.55;;;2.00;;
24751;SDS011;27246;52.376;4.628;2022-12-07T00:20:36;2.60;;;1.33;;
24751;SDS011;27246;52.376;4.628;2022-12-07T00:25:38;2.72;;;1.05;;
24751;SDS011;27246;52.376;4.628;2022-12-07T00:30:40;3.17;;;1.42;;
24751;SDS011;27246;52.376;4.628;2022-12-07T00:35:41;7.07;;;1.48;;
24751;SDS011;27246;52.376;4.628;2022-12-07T00:40:43;6.07;;;1.88;;
24751;SDS011;27246;52.376;4.628;2022-12-07T00:45:45;8.30;;;1.50;;
24751;SDS011;27246;52.376;4.628;2022-12-07T00:50:46;4.78;;;1.35;;
24751;SDS011;27246;52.376;4.628;2022-12-07T00:55:49;4.32;;;1.30;;
24751;SDS011;27246;52.376;4.628;2022-12-07T01:00:51;5.65;;;1.50;;
24751;SDS011;27246;52.376;4.628;2022-12-07T01:05:53;6.50;;;1.00;;
24751;SDS011;27246;52.376;4.628;2022-12-07T01:11:03;3.90;;;0.88;;
24751;SDS011;27246;52.376;4.628;2022-12-07T01:16:07;5.18;;;1.02;;
24751;SDS011;27246;52.376;4.628;2022-12-07T01:21:16;4.18;;;1.20;;
24751;SDS011;27246;52.376;4.628;2022-12-07T01:26:25;5.50;;;0.93;;
24751;SDS011;27246;52.376;4.628;2022-12-07T01:31:28;6.35;;;1.00;;
24751;SDS011;27246;52.376;4.628;2022-12-07T01:36:30;4.38;;;1.25;;
24751;SDS011;27246;52.376;4.628;2022-12-07T01:41:35;4.57;;;1.67;;
24751;SDS011;27246;52.376;4.628;2022-12-07T01:46:42;6.90;;;1.30;;
24751;SDS011;27246;52.376;4.628;2022-12-07T01:51:45;8.07;;;1.83;;
24751;SDS011;27246;52.376;4.628;2022-12-07T01:56:51;6.30;;;1.52;;
24751;SDS011;27246;52.376;4.628;2022-12-07T02:01:56;6.95;;;1.48;;
24751;SDS011;27246;52.376;4.628;2022-12-07T02:06:58;4.38;;;1.15;;
24751;SDS011;27246;52.376;4.628;2022-12-07T02:12:00;6.45;;;0.90;;
24751;SDS011;27246;52.376;4.628;2022-12-07T02:33:13;9.13;;;1.23;;
24751;SDS011;27246;52.376;4.628;2022-12-07T02:38:22;4.38;;;0.90;;
24751;SDS011;27246;52.376;4.628;2022-12-07T02:43:38;4.18;;;1.05;;
24751;SDS011;27246;52.376;4.628;2022-12-07T02:48:43;6.50;;;1.13;;
24751;SDS011;27246;52.376;4.628;2022-12-07T02:53:46;4.70;;;1.00;;
24751;SDS011;27246;52.376;4.628;2022-12-07T02:58:54;3.03;;;0.93;;
24751;SDS011;27246;52.376;4.628;2022-12-07T03:20:44;3.85;;;0.80;;
24751;SDS011;27246;52.376;4.628;2022-12-07T03:25:49;2.80;;;0.93;;
24751;SDS011;27246;52.376;4.628;2022-12-07T03:36:26;6.63;;;1.45;;
24751;SDS011;27246;52.376;4.628;2022-12-07T03:41:33;7.47;;;0.87;;
24751;SDS011;27246;52.376;4.628;2022-12-07T03:57:28;6.07;;;1.08;;
24751;SDS011;27246;52.376;4.628;2022-12-07T04:02:31;3.80;;;0.70;;
24751;SDS011;27246;52.376;4.628;2022-12-07T04:07:35;5.82;;;1.40;;
24751;SDS011;27246;52.376;4.628;2022-12-07T04:12:37;6.40;;;1.33;;
24751;SDS011;27246;52.376;4.628;2022-12-07T04:17:39;6.72;;;1.02;;
24751;SDS011;27246;52.376;4.628;2022-12-07T04:22:41;2.97;;;1.35;;
24751;SDS011;27246;52.376;4.628;2022-12-07T04:27:42;4.43;;;0.90;;
24751;SDS011;27246;52.376;4.628;2022-12-07T04:32:44;9.30;;;2.42;;
24751;SDS011;27246;52.376;4.628;2022-12-07T04:37:46;6.65;;;0.90;;
24751;SDS011;27246;52.376;4.628;2022-12-07T04:42:47;3.60;;;1.42;;
24751;SDS011;27246;52.376;4.628;2022-12-07T04:47:49;4.47;;;1.00;;
24751;SDS011;27246;52.376;4.628;2022-12-07T04:52:51;2.53;;;0.75;;
24751;SDS011;27246;52.376;4.628;2022-12-07T04:57:52;4.95;;;0.77;;
24751;SDS011;27246;52.376;4.628;2022-12-07T05:02:54;4.22;;;0.80;;
24751;SDS011;27246;52.376;4.628;2022-12-07T05:07:56;3.20;;;0.63;;
24751;SDS011;27246;52.376;4.628;2022-12-07T05:12:57;3.55;;;0.60;;
24751;SDS011;27246;52.376;4.628;2022-12-07T05:17:59;2.17;;;0.70;;
24751;SDS011;27246;52.376;4.628;2022-12-07T05:23:01;2.72;;;0.85;;
24751;SDS011;27246;52.376;4.628;2022-12-07T05:28:03;2.15;;;0.88;;
24751;SDS011;27246;52.376;4.628;2022-12-07T05:33:06;1.38;;;0.77;;
24751;SDS011;27246;52.376;4.628;2022-12-07T05:38:08;5.10;;;1.20;;
24751;SDS011;27246;52.376;4.628;2022-12-07T05:43:09;4.22;;;1.05;;
24751;SDS011;27246;52.376;4.628;2022-12-07T05:48:11;5.15;;;1.60;;
24751;SDS011;27246;52.376;4.628;2022-12-07T05:53:13;5.57;;;1.60;;
24751;SDS011;27246;52.376;4.628;2022-12-07T05:58:23;3.83;;;1.38;;
24751;SDS011;27246;52.376;4.628;2022-12-07T06:03:43;4.90;;;2.15;;
24751;SDS011;27246;52.376;4.628;2022-12-07T06:08:46;6.60;;;2.95;;
24751;SDS011;27246;52.376;4.628;2022-12-07T06:13:48;5.65;;;1.90;;
24751;SDS011;27246;52.376;4.628;2022-12-07T06:18:49;5.18;;;1.45;;
24751;SDS011;27246;52.376;4.628;2022-12-07T06:23:51;9.77;;;5.07;;
24751;SDS011;27246;52.376;4.628;2022-12-07T06:28:53;4.25;;;1.70;;
24751;SDS011;27246;52.376;4.628;2022-12-07T06:34:01;8.30;;;1.63;;
24751;SDS011;27246;52.376;4.628;2022-12-07T06:39:05;6.10;;;1.23;;
24751;SDS011;27246;52.376;4.628;2022-12-07T06:44:07;7.53;;;1.73;;
24751;SDS011;27246;52.376;4.628;2022-12-07T06:49:09;8.45;;;2.55;;
24751;SDS011;27246;52.376;4.628;2022-12-07T06:54:11;7.13;;;2.13;;
24751;SDS011;27246;52.376;4.628;2022-12-07T06:59:14;10.40;;;2.58;;
24751;SDS011;27246;52.376;4.628;2022-12-07T07:04:16;7.03;;;2.33;;
24751;SDS011;27246;52.376;4.628;2022-12-07T07:09:18;8.18;;;2.28;;
24751;SDS011;27246;52.376;4.628;2022-12-07T07:14:20;9.50;;;2.58;;
24751;SDS011;27246;52.376;4.628;2022-12-07T07:19:22;10.10;;;6.53;;
24751;SDS011;27246;52.376;4.628;2022-12-07T07:24:24;8.30;;;3.28;;
24751;SDS011;27246;52.376;4.628;2022-12-07T07:29:26;7.22;;;2.58;;
24751;SDS011;27246;52.376;4.628;2022-12-07T07:34:27;3.88;;;1.00;;
24751;SDS011;27246;52.376;4.628;2022-12-07T07:39:29;5.53;;;1.50;;
24751;SDS011;27246;52.376;4.628;2022-12-07T07:44:31;8.80;;;1.10;;
24751;SDS011;27246;52.376;4.628;2022-12-07T07:49:35;6.18;;;1.95;;
24751;SDS011;27246;52.376;4.628;2022-12-07T07:54:37;4.43;;;1.67;;
24751;SDS011;27246;52.376;4.628;2022-12-07T07:59:39;6.25;;;2.40;;
24751;SDS011;27246;52.376;4.628;2022-12-07T08:04:41;6.20;;;1.33;;
24751;SDS011;27246;52.376;4.628;2022-12-07T08:09:43;6.53;;;1.42;;
24751;SDS011;27246;52.376;4.628;2022-12-07T08:14:44;2.38;;;1.50;;
24751;SDS011;27246;52.376;4.628;2022-12-07T08:19:49;7.85;;;1.30;;
24751;SDS011;27246;52.376;4.628;2022-12-07T08:24:51;6.00;;;1.23;;
24751;SDS011;27246;52.376;4.628;2022-12-07T08:29:52;3.53;;;1.60;;
24751;SDS011;27246;52.376;4.628;2022-12-07T08:34:54;12.65;;;2.05;;
24751;SDS011;27246;52.376;4.628;2022-12-07T08:39:56;3.40;;;1.30;;
24751;SDS011;27246;52.376;4.628;2022-12-07T08:44:58;5.40;;;1.55;;
24751;SDS011;27246;52.376;4.628;2022-12-07T08:50:00;6.95;;;1.80;;
24751;SDS011;27246;52.376;4.628;2022-12-07T08:55:05;4.63;;;2.22;;
24751;SDS011;27246;52.376;4.628;2022-12-07T09:00:08;6.28;;;2.25;;
24751;SDS011;27246;52.376;4.628;2022-12-07T09:05:10;8.88;;;2.70;;
24751;SDS011;27246;52.376;4.628;2022-12-07T09:10:17;6.88;;;2.28;;
24751;SDS011;27246;52.376;4.628;2022-12-07T09:15:19;4.85;;;1.77;;
24751;SDS011;27246;52.376;4.628;2022-12-07T09:20:21;6.40;;;2.28;;
24751;SDS011;27246;52.376;4.628;2022-12-07T09:25:28;8.05;;;2.40;;
24751;SDS011;27246;52.376;4.628;2022-12-07T09:30:31;3.72;;;2.42;;
24751;SDS011;27246;52.376;4.628;2022-12-07T09:35:54;8.88;;;3.00;;
24751;SDS011;27246;52.376;4.628;2022-12-07T09:40:56;8.35;;;3.05;;
24751;SDS011;27246;52.376;4.628;2022-12-07T09:45:58;8.60;;;3.60;;
24751;SDS011;27246;52.376;4.628;2022-12-07T09:51:00;9.10;;;2.50;;
24751;SDS011;27246;52.376;4.628;2022-12-07T09:56:02;6.55;;;2.35;;
24751;SDS011;27246;52.376;4.628;2022-12-07T10:01:13;9.07;;;3.95;;
24751;SDS011;27246;52.376;4.628;2022-12-07T10:06:24;14.65;;;7.93;;
24751;SDS011;27246;52.376;4.628;2022-12-07T10:11:26;7.45;;;2.95;;
24751;SDS011;27246;52.376;4.628;2022-12-07T10:16:32;10.52;;;2.80;;
24751;SDS011;27246;52.376;4.628;2022-12-07T10:21:40;13.25;;;3.65;;
24751;SDS011;27246;52.376;4.628;2022-12-07T10:27:17;10.52;;;3.92;;
24751;SDS011;27246;52.376;4.628;2022-12-07T10:37:21;6.82;;;3.10;;
24751;SDS011;27246;52.376;4.628;2022-12-07T10:42:28;11.80;;;4.20;;
24751;SDS011;27246;52.376;4.628;2022-12-07T10:58:04;10.02;;;2.60;;
24751;SDS011;27246;52.376;4.628;2022-12-07T11:03:29;3.53;;;1.30;;
24751;SDS011;27246;52.376;4.628;2022-12-07T11:09:16;2.15;;;0.57;;
24751;SDS011;27246;52.376;4.628;2022-12-07T11:15:02;2.40;;;0.65;;
24751;SDS011;27246;52.376;4.628;2022-12-07T11:25:39;2.72;;;1.58;;
24751;SDS011;27246;52.376;4.628;2022-12-07T11:31:26;5.03;;;1.50;;
24751;SDS011;27246;52.376;4.628;2022-12-07T11:42:01;4.18;;;1.55;;
24751;SDS011;27246;52.376;4.628;2022-12-07T11:57:50;5.00;;;2.00;;
24751;SDS011;27246;52.376;4.628;2022-12-07T12:03:01;6.05;;;1.40;;
24751;SDS011;27246;52.376;4.628;2022-12-07T12:08:18;6.45;;;1.40;;
24751;SDS011;27246;52.376;4.628;2022-12-07T12:25:02;2.65;;;1.55;;
24751;SDS011;27246;52.376;4.628;2022-12-07T12:30:23;3.22;;;0.60;;
24751;SDS011;27246;52.376;4.628;2022-12-07T12:35:30;2.03;;;1.33;;
24751;SDS011;27246;52.376;4.628;2022-12-07T12:40:39;3.90;;;1.58;;
24751;SDS011;27246;52.376;4.628;2022-12-07T12:45:48;3.92;;;1.65;;
24751;SDS011;27246;52.376;4.628;2022-12-07T12:50:56;5.43;;;2.65;;
24751;SDS011;27246;52.376;4.628;2022-12-07T13:01:48;7.35;;;2.95;;
24751;SDS011;27246;52.376;4.628;2022-12-07T13:06:56;6.18;;;2.22;;
24751;SDS011;27246;52.376;4.628;2022-12-07T13:11:59;8.20;;;2.17;;
24751;SDS011;27246;52.376;4.628;2022-12-07T13:27:41;9.48;;;4.95;;
24751;SDS011;27246;52.376;4.628;2022-12-07T13:32:55;5.50;;;2.40;;
24751;SDS011;27246;52.376;4.628;2022-12-07T13:38:01;5.45;;;3.00;;
24751;SDS011;27246;52.376;4.628;2022-12-07T13:43:12;6.05;;;2.35;;
24751;SDS011;27246;52.376;4.628;2022-12-07T13:48:20;4.88;;;1.00;;
24751;SDS011;27246;52.376;4.628;2022-12-07T13:53:23;3.95;;;0.98;;
24751;SDS011;27246;52.376;4.628;2022-12-07T13:58:30;3.33;;;0.80;;
24751;SDS011;27246;52.376;4.628;2022-12-07T14:03:33;4.93;;;1.45;;
24751;SDS011;27246;52.376;4.628;2022-12-07T14:08:37;4.88;;;1.40;;
24751;SDS011;27246;52.376;4.628;2022-12-07T14:13:51;3.90;;;1.38;;
24751;SDS011;27246;52.376;4.628;2022-12-07T14:19:00;3.53;;;1.17;;
24751;SDS011;27246;52.376;4.628;2022-12-07T14:34:38;5.18;;;1.63;;
24751;SDS011;27246;52.376;4.628;2022-12-07T14:39:40;6.13;;;1.80;;
24751;SDS011;27246;52.376;4.628;2022-12-07T14:44:42;5.47;;;1.00;;
24751;SDS011;27246;52.376;4.628;2022-12-07T14:49:44;5.53;;;2.00;;
24751;SDS011;27246;52.376;4.628;2022-12-07T14:54:46;3.22;;;0.98;;
24751;SDS011;27246;52.376;4.628;2022-12-07T14:59:47;2.35;;;1.33;;
24751;SDS011;27246;52.376;4.628;2022-12-07T15:04:49;4.43;;;1.42;;
24751;SDS011;27246;52.376;4.628;2022-12-07T15:09:51;3.63;;;1.30;;
24751;SDS011;27246;52.376;4.628;2022-12-07T15:14:53;2.42;;;1.70;;
24751;SDS011;27246;52.376;4.628;2022-12-07T15:19:55;4.32;;;1.48;;
24751;SDS011;27246;52.376;4.628;2022-12-07T15:24:57;4.20;;;1.05;;
24751;SDS011;27246;52.376;4.628;2022-12-07T15:29:59;6.50;;;1.90;;
24751;SDS011;27246;52.376;4.628;2022-12-07T15:35:01;5.10;;;1.70;;
24751;SDS011;27246;52.376;4.628;2022-12-07T15:40:03;9.48;;;1.55;;
24751;SDS011;27246;52.376;4.628;2022-12-07T15:45:11;4.40;;;1.83;;
24751;SDS011;27246;52.376;4.628;2022-12-07T15:50:15;5.60;;;1.63;;
24751;SDS011;27246;52.376;4.628;2022-12-07T15:55:18;7.57;;;1.83;;
24751;SDS011;27246;52.376;4.628;2022-12-07T16:00:19;4.00;;;1.58;;
24751;SDS011;27246;52.376;4.628;2022-12-07T16:05:21;5.63;;;1.30;;
24751;SDS011;27246;52.376;4.628;2022-12-07T16:10:23;4.75;;;2.47;;
24751;SDS011;27246;52.376;4.628;2022-12-07T16:15:25;8.95;;;2.17;;
24751;SDS011;27246;52.376;4.628;2022-12-07T16:20:28;2.58;;;1.40;;
24751;SDS011;27246;52.376;4.628;2022-12-07T16:25:29;3.97;;;1.60;;
24751;SDS011;27246;52.376;4.628;2022-12-07T16:30:31;3.72;;;1.30;;
24751;SDS011;27246;52.376;4.628;2022-12-07T16:35:58;5.60;;;1.35;;
24751;SDS011;27246;52.376;4.628;2022-12-07T16:41:03;4.55;;;1.60;;
24751;SDS011;27246;52.376;4.628;2022-12-07T16:46:06;6.72;;;2.05;;
24751;SDS011;27246;52.376;4.628;2022-12-07T16:51:08;7.63;;;2.00;;
24751;SDS011;27246;52.376;4.628;2022-12-07T16:56:12;8.20;;;1.98;;
24751;SDS011;27246;52.376;4.628;2022-12-07T17:01:16;6.22;;;2.08;;
24751;SDS011;27246;52.376;4.628;2022-12-07T17:06:21;8.05;;;1.95;;
24751;SDS011;27246;52.376;4.628;2022-12-07T17:11:25;4.93;;;1.02;;
24751;SDS011;27246;52.376;4.628;2022-12-07T17:16:29;2.95;;;0.95;;
24751;SDS011;27246;52.376;4.628;2022-12-07T17:21:31;7.00;;;2.40;;
24751;SDS011;27246;52.376;4.628;2022-12-07T17:26:36;9.38;;;1.23;;
24751;SDS011;27246;52.376;4.628;2022-12-07T17:31:39;4.15;;;1.17;;
24751;SDS011;27246;52.376;4.628;2022-12-07T17:36:48;5.50;;;1.40;;
24751;SDS011;27246;52.376;4.628;2022-12-07T17:41:50;7.35;;;2.70;;
24751;SDS011;27246;52.376;4.628;2022-12-07T17:52:12;4.18;;;1.85;;
24751;SDS011;27246;52.376;4.628;2022-12-07T17:57:33;4.18;;;1.55;;
24751;SDS011;27246;52.376;4.628;2022-12-07T18:02:35;4.82;;;2.00;;
24751;SDS011;27246;52.376;4.628;2022-12-07T18:07:36;5.68;;;2.80;;
24751;SDS011;27246;52.376;4.628;2022-12-07T18:12:41;5.75;;;3.22;;
24751;SDS011;27246;52.376;4.628;2022-12-07T18:17:49;5.55;;;2.65;;
24751;SDS011;27246;52.376;4.628;2022-12-07T18:22:52;4.50;;;2.80;;
24751;SDS011;27246;52.376;4.628;2022-12-07T18:27:54;7.32;;;3.47;;
24751;SDS011;27246;52.376;4.628;2022-12-07T18:32:55;7.65;;;3.63;;
24751;SDS011;27246;52.376;4.628;2022-12-07T18:37:57;4.80;;;2.40;;
24751;SDS011;27246;52.376;4.628;2022-12-07T18:42:59;1.75;;;0.98;;
24751;SDS011;27246;52.376;4.628;2022-12-07T18:48:01;2.65;;;0.90;;
24751;SDS011;27246;52.376;4.628;2022-12-07T18:53:04;2.63;;;0.90;;
24751;SDS011;27246;52.376;4.628;2022-12-07T18:58:09;3.47;;;1.10;;
24751;SDS011;27246;52.376;4.628;2022-12-07T19:03:11;3.63;;;1.08;;
24751;SDS011;27246;52.376;4.628;2022-12-07T19:08:13;1.98;;;1.40;;
24751;SDS011;27246;52.376;4.628;2022-12-07T19:13:15;3.30;;;2.35;;
24751;SDS011;27246;52.376;4.628;2022-12-07T19:18:17;3.45;;;2.30;;
24751;SDS011;27246;52.376;4.628;2022-12-07T19:23:19;7.22;;;4.63;;
24751;SDS011;27246;52.376;4.628;2022-12-07T19:28:23;6.15;;;4.15;;
24751;SDS011;27246;52.376;4.628;2022-12-07T19:33:25;7.85;;;4.88;;
24751;SDS011;27246;52.376;4.628;2022-12-07T19:38:29;9.23;;;4.47;;
24751;SDS011;27246;52.376;4.628;2022-12-07T19:43:33;7.80;;;4.10;;
24751;SDS011;27246;52.376;4.628;2022-12-07T19:48:35;7.32;;;4.50;;
24751;SDS011;27246;52.376;4.628;2022-12-07T19:53:37;9.32;;;6.65;;
24751;SDS011;27246;52.376;4.628;2022-12-07T19:58:39;8.00;;;5.78;;
24751;SDS011;27246;52.376;4.628;2022-12-07T20:03:40;10.82;;;6.10;;
24751;SDS011;27246;52.376;4.628;2022-12-07T20:08:42;13.40;;;5.80;;
24751;SDS011;27246;52.376;4.628;2022-12-07T20:13:45;16.17;;;10.20;;
24751;SDS011;27246;52.376;4.628;2022-12-07T20:18:47;14.98;;;10.70;;
24751;SDS011;27246;52.376;4.628;2022-12-07T20:24:01;17.30;;;10.40;;
24751;SDS011;27246;52.376;4.628;2022-12-07T20:29:04;16.77;;;11.18;;
24751;SDS011;27246;52.376;4.628;2022-12-07T20:34:12;15.50;;;11.68;;
24751;SDS011;27246;52.376;4.628;2022-12-07T20:39:14;17.95;;;10.05;;
24751;SDS011;27246;52.376;4.628;2022-12-07T20:44:16;13.52;;;9.20;;
24751;SDS011;27246;52.376;4.628;2022-12-07T20:49:19;12.07;;;7.07;;
24751;SDS011;27246;52.376;4.628;2022-12-07T20:54:21;10.52;;;6.95;;
24751;SDS011;27246;52.376;4.628;2022-12-07T20:59:23;11.77;;;6.53;;
24751;SDS011;27246;52.376;4.628;2022-12-07T21:04:25;11.43;;;6.60;;
24751;SDS011;27246;52.376;4.628;2022-12-07T21:09:26;9.90;;;5.70;;
24751;SDS011;27246;52.376;4.628;2022-12-07T21:14:28;6.75;;;2.65;;
24751;SDS011;27246;52.376;4.628;2022-12-07T21:19:30;5.22;;;2.53;;
24751;SDS011;27246;52.376;4.628;2022-12-07T21:24:32;3.08;;;1.38;;
24751;SDS011;27246;52.376;4.628;2022-12-07T21:29:34;3.85;;;1.90;;
24751;SDS011;27246;52.376;4.628;2022-12-07T21:34:45;2.85;;;1.83;;
24751;SDS011;27246;52.376;4.628;2022-12-07T21:39:46;5.38;;;2.85;;
24751;SDS011;27246;52.376;4.628;2022-12-07T21:44:48;2.25;;;1.70;;
24751;SDS011;27246;52.376;4.628;2022-12-07T21:49:50;4.70;;;1.23;;
24751;SDS011;27246;52.376;4.628;2022-12-07T21:54:51;2.78;;;0.75;;
24751;SDS011;27246;52.376;4.628;2022-12-07T21:59:53;2.35;;;1.00;;
24751;SDS011;27246;52.376;4.628;2022-12-07T22:04:54;4.22;;;1.10;;
24751;SDS011;27246;52.376;4.628;2022-12-07T22:09:56;1.90;;;0.98;;
24751;SDS011;27246;52.376;4.628;2022-12-07T22:14:59;2.00;;;1.10;;
24751;SDS011;27246;52.376;4.628;2022-12-07T22:20:07;2.95;;;0.93;;
24751;SDS011;27246;52.376;4.628;2022-12-07T22:25:09;6.00;;;1.55;;
24751;SDS011;27246;52.376;4.628;2022-12-07T22:30:12;2.22;;;0.70;;
24751;SDS011;27246;52.376;4.628;2022-12-07T22:35:13;5.22;;;0.98;;
24751;SDS011;27246;52.376;4.628;2022-12-07T22:40:15;2.83;;;0.70;;
24751;SDS011;27246;52.376;4.628;2022-12-07T22:45:17;3.65;;;0.80;;
24751;SDS011;27246;52.376;4.628;2022-12-07T22:50:19;3.53;;;0.57;;
24751;SDS011;27246;52.376;4.628;2022-12-07T22:55:21;3.25;;;0.60;;
24751;SDS011;27246;52.376;4.628;2022-12-07T23:00:22;1.65;;;0.60;;
24751;SDS011;27246;52.376;4.628;2022-12-07T23:05:24;0.95;;;0.30;;
24751;SDS011;27246;52.376;4.628;2022-12-07T23:10:26;0.85;;;0.10;;
24751;SDS011;27246;52.376;4.628;2022-12-07T23:15:27;0.60;;;0.17;;
24751;SDS011;27246;52.376;4.628;2022-12-07T23:20:29;1.80;;;0.40;;
24751;SDS011;27246;52.376;4.628;2022-12-07T23:25:31;1.08;;;0.30;;
24751;SDS011;27246;52.376;4.628;2022-12-07T23:30:33;1.02;;;0.40;;
24751;SDS011;27246;52.376;4.628;2022-12-07T23:35:35;2.60;;;0.70;;
24751;SDS011;27246;52.376;4.628;2022-12-07T23:40:36;1.50;;;0.50;;
24751;SDS011;27246;52.376;4.628;2022-12-07T23:45:38;3.03;;;0.52;;
24751;SDS011;27246;52.376;4.628;2022-12-07T23:50:40;2.75;;;0.50;;
24751;SDS011;27246;52.376;4.628;2022-12-07T23:55:44;1.48;;;0.50;;
